CheckWX is a tool to help pilots better visualize weather data.  It is not intended as a substitute for an official pre-flight weather briefing.

06:48:41 UTC

KGPT TAF
Gulfport-Biloxi International Airport
Gulfport, Mississippi, USA
KGPT 170520Z 1706/1806 00000KT P6SM FEW110 FM171300 14005KT P6SM SCT150 FM171800 15009KT P6SM VCTS SCT130CB FM180000 15008KT P6SM SCT120 FM180500 18005KT P6SM SCT200

Jun-17@
06:00 UTC

Jun-17 @ 06:00 UTC

Jun-17@
13:00 UTC

Jun-17 @ 13:00 UTC

KGPT 170520Z 1706/1806 00000KT P6SM FEW110
Cloud Levels
  • Few at 11,000' AGL

Jun-17@
13:00 UTC

Jun-17 @ 13:00 UTC

Jun-17@
18:00 UTC

Jun-17 @ 18:00 UTC

FM171300 14005KT P6SM SCT150

From

From Standard forecast or significant change

Wind
  • 140° at 5 KTS
Cloud Levels
  • Scattered at 15,000' AGL

Jun-17@
18:00 UTC

Jun-17 @ 18:00 UTC

Jun-18@
00:00 UTC

Jun-18 @ 00:00 UTC

FM171800 15009KT P6SM VCTS SCT130CB

From

From Standard forecast or significant change

Wind
  • 150° at 9 KTS
Conditions
Area Thunderstorm
Cloud Levels
  • Scattered at 13,000' AGL

Jun-18@
00:00 UTC

Jun-18 @ 00:00 UTC

Jun-18@
05:00 UTC

Jun-18 @ 05:00 UTC

FM180000 15008KT P6SM SCT120

From

From Standard forecast or significant change

Wind
  • 150° at 8 KTS
Cloud Levels
  • Scattered at 12,000' AGL

Jun-18@
05:00 UTC

Jun-18 @ 05:00 UTC

Jun-18@
06:00 UTC

Jun-18 @ 06:00 UTC

FM180500 18005KT P6SM SCT200

From

From Standard forecast or significant change

Wind
  • 180° at 5 KTS
Cloud Levels
  • Scattered at 20,000' AGL